Latest Coastal Weather Observations for Darwin Harbour

IDD60701

Issued at 8:01 am CST Friday 6 March 2015 (issued every 10 minutes, with the page automatically refreshed every 10 minutes)

About coastal observations | Map of coastal stations | Coastal observations for NT | Marine services | Other Formats
Station Details ID: 014072 Name: DARWIN NTC AWS Lat: -12.47 Lon: 130.85 Height: 0.0 m
Data from the previous 72 hours. | See also: Recent months for locations in Northern Territory
Date/Time
CST
Temp

°C
Wind Pressure Rain
since 9am
mm
Weather Cloud Vis
km
Sea
Height
m
Swell
Dir
 
Speed
knots
Gust
knots
hPa Trend Height
m
Period
s
Dir
06/08:00am 28.6 W 5 7 1006.8 - - - - - - - - -
06/07:30am 28.5 W 5 7 1006.7 - - - - - - - - -
06/07:00am 28.4 W 4 6 1006.5 - - - - - - - - -
06/06:30am 27.3 NE 2 3 1006.2 - - - - - - - - -
06/06:00am 27.5 CALM 0 2 1006.0 - - - - - - - - -
06/05:30am 27.8 CALM 0 2 1006.0 - - - - - - - - -
06/05:00am 28.3 W 5 7 1006.0 - - - - - - - - -
06/04:30am 28.3 W 2 6 1005.9 - - - - - - - - -
06/04:00am 27.8 WNW 1 2 1005.9 - - - - - - - - -
06/03:30am 27.7 NNW 1 4 1006.3 - - - - - - - - -
06/03:00am 27.5 ENE 1 4 1006.4 - - - - - - - - -
06/02:30am 27.5 NE 3 7 1006.7 - - - - - - - - -
06/02:00am 27.5 NE 3 6 1007.0 - - - - - - - - -
06/01:30am 27.5 NE 5 10 1007.7 - - - - - - - - -
06/01:00am 29.4 NW 3 8 1007.6 - - - - - - - - -
06/12:30am 29.6 N 1 3 1008.0 - - - - - - - - -
06/12:00am 29.4 WNW 5 7 1007.9 - - - - - - - - -
 
Date/Time
CST
Temp

°C
Wind Pressure Rain
since 9am
mm
Weather Cloud Vis
km
Sea
Height
m
Swell
Dir
 
Speed
knots
Gust
knots
hPa Trend Height
m
Period
s
Dir
05/11:30pm 29.4 WNW 7 9 1007.8 - - - - - - - - -
05/11:00pm 29.4 W 6 8 1008.0 - - - - - - - - -
05/10:30pm 29.5 WNW 7 9 1008.0 - - - - - - - - -
05/10:00pm 29.6 W 7 9 1007.7 - - - - - - - - -
05/09:30pm 29.7 WNW 5 6 1007.6 - - - - - - - - -
05/09:00pm 29.7 WNW 5 7 1007.4 - - - - - - - - -
05/08:30pm 29.8 W 7 10 1007.1 - - - - - - - - -
05/08:00pm 29.9 W 9 13 1006.8 - - - - - - - - -
05/07:30pm 30.1 W 8 11 1006.4 - - - - - - - - -
05/07:00pm 30.2 W 8 11 1005.8 - - - - - - - - -
05/06:30pm 30.6 WNW 7 11 1005.3 - - - - - - - - -
05/06:00pm 30.8 NW 7 11 1004.7 - - - - - - - - -
05/05:30pm 31.1 WNW 8 11 1004.6 - - - - - - - - -
05/05:00pm 30.9 WNW 9 15 1004.9 - - - - - - - - -
05/04:30pm 30.8 WNW 10 16 1005.0 - - - - - - - - -
05/04:00pm 30.9 W 7 12 1005.0 - - - - - - - - -
05/03:30pm 31.0 WNW 5 11 1005.1 - - - - - - - - -
05/03:00pm 32.1 WNW 4 8 1005.1 - - - - - - - - -
05/02:30pm 31.2 W 6 11 1005.7 - - - - - - - - -
05/02:00pm 31.2 W 6 10 1005.9 - - - - - - - - -
05/01:30pm 31.2 W 4 7 1006.5 - - - - - - - - -
05/01:00pm 31.2 W 4 6 1007.0 - - - - - - - - -
05/12:30pm 31.2 W 4 6 1007.4 - - - - - - - - -
05/12:00pm 30.6 W 4 6 1007.6 - - - - - - - - -
05/11:30am 29.8 W 2 3 1007.7 - - - - - - - - -
05/11:00am 29.2 W 3 4 1007.8 - - - - - - - - -
05/10:30am 28.7 W 2 3 1008.0 - - - - - - - - -
05/10:00am 28.3 WSW 3 4 1008.6 - - - - - - - - -
05/09:30am 28.0 W 2 3 1008.8 - - - - - - - - -
05/09:00am 27.9 WSW 1 2 1008.5 - - - - - - - - -
05/08:30am 28.1 NE 2 4 1008.5 - - - - - - - - -
05/08:00am 27.3 SSW 1 3 1008.2 - - - - - - - - -
05/07:30am 27.0 SSE 1 5 1008.1 - - - - - - - - -
05/07:00am 26.9 CALM 0 1 1007.7 - - - - - - - - -
05/06:30am 26.9 SSW 1 3 1007.5 - - - - - - - - -
05/06:00am 27.1 SSE 3 5 1007.7 - - - - - - - - -
05/05:30am 27.1 SE 4 5 1007.6 - - - - - - - - -
05/05:00am 26.9 ESE 4 5 1007.3 - - - - - - - - -
05/04:30am 26.8 SE 4 6 1007.2 - - - - - - - - -
05/04:00am 26.8 E 3 4 1007.1 - - - - - - - - -
05/03:30am 26.1 NE 3 4 1006.9 - - - - - - - - -
05/03:00am 26.1 NE 3 5 1006.8 - - - - - - - - -
05/02:30am 26.4 ENE 3 6 1007.0 - - - - - - - - -
05/02:00am 26.2 ESE 4 5 1007.4 - - - - - - - - -
05/01:30am 26.0 SE 7 11 1008.0 - - - - - - - - -
05/01:00am 26.2 SE 7 9 1008.2 - - - - - - - - -
05/12:30am 27.0 ESE 5 7 1008.4 - - - - - - - - -
05/12:00am 27.6 SW 1 3 1008.8 - - - - - - - - -
 
Date/Time
CST
Temp

°C
Wind Pressure Rain
since 9am
mm
Weather Cloud Vis
km
Sea
Height
m
Swell
Dir
 
Speed
knots
Gust
knots
hPa Trend Height
m
Period
s
Dir
04/11:30pm 27.9 WSW 1 4 1008.7 - - - - - - - - -
04/11:00pm 27.4 WNW 3 5 1008.5 - - - - - - - - -
04/10:30pm 27.4 W 2 4 1008.5 - - - - - - - - -
04/10:00pm 27.3 WSW 1 2 1008.6 - - - - - - - - -
04/09:30pm 27.4 WSW 4 5 1008.1 - - - - - - - - -
04/09:00pm 27.4 WSW 2 5 1007.7 - - - - - - - - -
04/08:30pm 27.4 SSW 2 4 1007.5 - - - - - - - - -
04/08:00pm 26.8 S 1 4 1007.5 - - - - - - - - -
04/07:30pm 26.2 SSE 13 20 1007.5 - - - - - - - - -
04/07:09pm 27.2 SE 18 28 1007.4 - - - - - - - - -
04/07:00pm 27.7 S 14 26 1007.6 - - - - - - - - -
04/06:30pm 29.7 NW 6 11 1006.3 - - - - - - - - -
04/06:00pm 29.9 WNW 10 14 1005.8 - - - - - - - - -
04/05:30pm 30.1 WNW 10 15 1005.8 - - - - - - - - -
04/05:00pm 30.3 NW 7 14 1005.4 - - - - - - - - -
04/04:30pm 30.5 NNW 6 13 1005.3 - - - - - - - - -
04/04:00pm 30.2 N 5 10 1005.3 - - - - - - - - -
04/03:30pm 31.0 WNW 6 9 1005.2 - - - - - - - - -
04/03:00pm 30.0 WNW 5 7 1005.2 - - - - - - - - -
04/02:30pm 29.9 NW 3 8 1005.8 - - - - - - - - -
04/02:00pm 29.8 W 7 11 1006.1 - - - - - - - - -
04/01:30pm 29.9 W 8 12 1006.6 - - - - - - - - -
04/01:00pm 30.1 WNW 8 11 1007.0 - - - - - - - - -
04/12:30pm 30.9 NNW 4 8 1007.4 - - - - - - - - -
04/12:00pm 30.5 NW 4 11 1007.8 - - - - - - - - -
04/11:30am 29.3 NW 4 8 1007.9 - - - - - - - - -
04/11:00am 30.4 NNE 3 8 1008.0 - - - - - - - - -
04/10:30am 31.0 NNE 2 5 1008.2 - - - - - - - - -
04/10:00am 30.1 N 4 8 1008.2 - - - - - - - - -
04/09:30am 29.1 NNE 4 9 1008.0 - - - - - - - - -
04/09:00am 29.4 ENE 3 4 1007.7 - - - - - - - - -
04/08:30am 28.3 ENE 3 5 1007.5 - - - - - - - - -
04/08:00am 27.4 ENE 4 5 1007.3 - - - - - - - - -
04/07:30am 26.7 NE 3 4 1007.0 - - - - - - - - -
04/07:00am 26.3 NNE 4 6 1006.5 - - - - - - - - -
04/06:30am 26.7 E 5 6 1006.3 - - - - - - - - -
04/06:00am 26.8 E 5 6 1005.9 - - - - - - - - -
04/05:30am 27.1 NE 3 5 1005.7 - - - - - - - - -
04/05:00am 26.8 ENE 2 4 1005.2 - - - - - - - - -
04/04:30am 26.9 NE 3 4 1004.9 - - - - - - - - -
04/04:00am 27.1 NE 3 5 1004.8 - - - - - - - - -
04/03:30am 27.4 NNE 2 5 1005.4 - - - - - - - - -
04/03:00am 27.1 N 3 6 1005.5 - - - - - - - - -
04/02:30am 27.1 ENE 2 4 1005.8 - - - - - - - - -
04/02:00am 26.7 NE 3 4 1005.8 - - - - - - - - -
04/01:30am 26.7 ENE 2 4 1006.0 - - - - - - - - -
04/01:00am 26.9 NE 2 4 1006.1 - - - - - - - - -
04/12:30am 26.8 NNE 3 5 1006.2 - - - - - - - - -
04/12:00am 26.8 NNE 5 9 1006.3 - - - - - - - - -
 
Date/Time
CST
Temp

°C
Wind Pressure Rain
since 9am
mm
Weather Cloud Vis
km
Sea
Height
m
Swell
Dir
 
Speed
knots
Gust
knots
hPa Trend Height
m
Period
s
Dir
03/11:30pm 26.6 NE 4 9 1006.2 - - - - - - - - -
03/11:00pm 27.2 N 4 8 1006.5 - - - - - - - - -
03/10:30pm 26.8 NE 4 7 1006.8 - - - - - - - - -
03/10:00pm 26.4 NE 5 10 1006.5 - - - - - - - - -
03/09:30pm 26.7 NE 3 9 1006.4 - - - - - - - - -
03/09:00pm 27.7 ENE 5 8 1005.8 - - - - - - - - -
03/08:30pm 28.0 E 8 10 1005.1 - - - - - - - - -
03/08:00pm 28.0 E 10 12 1005.2 - - - - - - - - -
03/07:30pm 27.9 E 6 8 1005.0 - - - - - - - - -
03/07:00pm 27.9 E 9 11 1004.4 - - - - - - - - -
03/06:30pm 28.0 ENE 5 8 1003.6 - - - - - - - - -
03/06:00pm 27.8 E 9 11 1003.7 - - - - - - - - -
03/05:30pm 27.9 NE 5 12 1003.5 - - - - - - - - -
03/05:00pm 28.0 NE 6 15 1003.3 - - - - - - - - -
03/04:30pm 30.0 ENE 7 12 1003.1 - - - - - - - - -
03/04:00pm 30.3 ENE 9 16 1002.9 - - - - - - - - -
03/03:30pm 29.6 ENE 10 14 1003.1 - - - - - - - - -
03/03:00pm 28.8 ENE 11 15 1003.6 - - - - - - - - -
03/02:30pm 28.9 ENE 9 13 1004.1 - - - - - - - - -
03/02:00pm 29.1 ENE 7 11 1004.5 - - - - - - - - -
03/01:30pm 27.6 ENE 6 11 1005.0 - - - - - - - - -
03/01:00pm 27.3 ENE 8 14 1005.2 - - - - - - - - -
03/12:30pm 27.3 ENE 12 19 1005.7 - - - - - - - - -
03/12:00pm 29.4 NE 5 9 1005.9 - - - - - - - - -
03/11:30am 27.8 ENE 6 8 1006.1 - - - - - - - - -
03/11:00am 27.3 ENE 8 14 1006.3 - - - - - - - - -
03/10:30am 27.8 ENE 7 10 1006.5 - - - - - - - - -
03/10:00am 27.5 ENE 11 14 1006.2 - - - - - - - - -
03/09:30am 26.9 ENE 11 15 1006.1 - - - - - - - - -
03/09:00am 26.2 ENE 8 13 1005.6 - - - - - - - - -
03/08:30am 25.6 ENE 6 10 1005.4 - - - - - - - - -

Other Formats:

Comma delimited format used in spreadsheet applications
http://www.bom.gov.au/fwo/IDD60701/IDD60701.95122.axf

JavaScript Object Notation format (JSON) in row-major order
http://www.bom.gov.au/fwo/IDD60701/IDD60701.95122.json